Time;durP1;ratioP1;P1;durP2;ratioP2;P2;SDS_P1;SDS_P2;PMS_P1;PMS_P2;Temp;Humidity;BMP_temperature;BMP_pressure;BME280_temperature;BME280_humidity;BME280_pressure;Samples;Min_cycle;Max_cycle;Signal;HPM_P1;HPM_P2
2022/07/07 00:01:36;;;;;;;0.28;0.28;;;;;;;18.07;99.52;100932.53;4974998;28;20034;-63
2022/07/07 00:04:02;;;;;;;0.00;0.00;;;;;;;18.13;99.80;100936.41;4982599;28;20026;-65
2022/07/07 00:06:28;;;;;;;0.57;0.57;;;;;;;18.06;100.00;100928.25;4986432;28;20541;-65
2022/07/07 00:08:54;;;;;;;0.00;0.00;;;;;;;18.09;100.00;100926.69;4989779;28;20038;-64
2022/07/07 00:11:23;;;;;;;0.00;0.00;;;;;;;18.11;100.00;100929.78;4989946;28;20030;-65
2022/07/07 00:13:49;;;;;;;0.00;0.00;;;;;;;18.09;100.00;100918.50;4977064;28;20035;-64
2022/07/07 00:16:15;;;;;;;0.00;0.00;;;;;;;18.08;100.00;100912.25;4979437;28;20033;-64
2022/07/07 00:18:41;;;;;;;0.00;0.00;;;;;;;18.01;100.00;100910.38;4983947;28;20089;-65
2022/07/07 00:21:06;;;;;;;0.00;0.00;;;;;;;18.04;100.00;100900.59;4982832;28;20295;-64
2022/07/07 00:23:32;;;;;;;0.00;0.00;;;;;;;18.07;100.00;100899.03;4984744;28;20034;-65
2022/07/07 00:25:57;;;;;;;0.00;0.00;;;;;;;18.00;100.00;100894.44;4986088;28;20030;-64
2022/07/07 00:28:23;;;;;;;0.00;0.00;;;;;;;18.03;100.00;100891.69;5003101;28;20639;-64
2022/07/07 00:30:49;;;;;;;0.00;0.00;;;;;;;18.11;100.00;100878.78;4989448;28;20085;-65
2022/07/07 00:33:14;;;;;;;0.25;0.25;;;;;;;18.02;100.00;100878.44;4990973;28;20042;-64
2022/07/07 00:35:40;;;;;;;0.00;0.00;;;;;;;17.98;100.00;100883.16;4985101;28;20080;-65
2022/07/07 00:38:06;;;;;;;0.00;0.00;;;;;;;17.82;100.00;100880.91;4989809;28;20034;-65
2022/07/07 00:40:32;;;;;;;0.00;0.00;;;;;;;17.89;100.00;100867.22;4989292;28;20022;-64
2022/07/07 00:42:58;;;;;;;0.00;0.00;;;;;;;17.84;100.00;100864.94;4985595;28;20042;-64
2022/07/07 00:45:24;;;;;;;0.10;0.10;;;;;;;17.89;100.00;100859.03;4987419;28;20045;-65
2022/07/07 00:47:49;;;;;;;0.00;0.00;;;;;;;17.93;100.00;100857.06;4989516;28;20048;-65
2022/07/07 00:50:15;;;;;;;0.10;0.10;;;;;;;17.95;100.00;100853.94;4985270;28;20030;-65
2022/07/07 00:52:41;;;;;;;0.00;0.00;;;;;;;17.99;100.00;100858.22;4989157;28;20072;-64
2022/07/07 00:55:08;;;;;;;0.00;0.00;;;;;;;17.91;100.00;100845.81;4989631;28;20184;-64
2022/07/07 00:57:34;;;;;;;0.00;0.00;;;;;;;17.94;100.00;100846.97;4989018;28;20046;-65
2022/07/07 01:00:04;;;;;;;0.00;0.00;;;;;;;18.02;100.00;100845.75;4985271;28;20507;-64
2022/07/07 01:02:31;;;;;;;0.00;0.00;;;;;;;17.96;100.00;100842.63;4988079;28;20033;-65
2022/07/07 01:04:59;;;;;;;0.00;0.00;;;;;;;17.84;100.00;100832.22;4989814;28;20397;-65
2022/07/07 01:07:27;;;;;;;0.00;0.00;;;;;;;17.91;100.00;100839.56;4972663;28;20034;-65
2022/07/07 01:09:55;;;;;;;0.00;0.00;;;;;;;17.70;100.00;100836.97;4988459;28;20038;-65
2022/07/07 01:12:21;;;;;;;0.00;0.00;;;;;;;17.72;100.00;100840.06;4990405;28;20113;-65
2022/07/07 01:14:46;;;;;;;0.00;0.00;;;;;;;17.81;100.00;100822.13;4992888;28;20469;-64
2022/07/07 01:17:12;;;;;;;0.00;0.00;;;;;;;17.89;100.00;100828.28;4991982;28;20038;-64
2022/07/07 01:19:38;;;;;;;0.00;0.00;;;;;;;17.97;100.00;100824.34;4992049;28;20038;-65
2022/07/07 01:22:12;;;;;;;0.10;0.10;;;;;;;17.77;100.00;100813.19;4993831;28;20048;-65
2022/07/07 01:24:38;;;;;;;0.00;0.00;;;;;;;17.81;100.00;100816.66;4992273;28;20061;-65
2022/07/07 01:27:09;;;;;;;0.00;0.00;;;;;;;17.88;100.00;100810.41;4983010;28;20072;-65
2022/07/07 01:29:39;;;;;;;0.00;0.00;;;;;;;17.84;100.00;100810.44;4990312;28;20026;-65
2022/07/07 01:32:07;;;;;;;0.00;0.00;;;;;;;17.91;100.00;100804.13;4992037;28;20100;-65
2022/07/07 01:34:33;;;;;;;0.00;0.00;;;;;;;17.94;100.00;100789.72;4973611;28;20085;-65
2022/07/07 01:36:59;;;;;;;0.00;0.00;;;;;;;17.99;100.00;100792.00;4982276;28;20038;-65
2022/07/07 01:39:25;;;;;;;0.00;0.00;;;;;;;17.99;100.00;100798.25;4990442;28;20049;-64
2022/07/07 01:41:50;;;;;;;0.00;0.00;;;;;;;17.97;100.00;100789.69;4995523;28;20473;-65
2022/07/07 01:44:16;;;;;;;0.20;0.20;;;;;;;17.96;100.00;100790.84;4991782;28;20062;-64
2022/07/07 01:46:41;;;;;;;0.10;0.10;;;;;;;17.86;100.00;100785.50;4990026;28;20034;-65
2022/07/07 01:49:07;;;;;;;0.10;0.10;;;;;;;17.92;100.00;100783.91;4991575;28;20036;-65
2022/07/07 01:51:32;;;;;;;0.20;0.20;;;;;;;17.91;100.00;100777.66;4989105;28;20030;-65
2022/07/07 01:53:58;;;;;;;0.30;0.30;;;;;;;17.97;100.00;100773.34;4988171;28;20046;-65
2022/07/07 01:56:23;;;;;;;0.30;0.30;;;;;;;17.95;100.00;100772.19;4990064;28;20030;-65
2022/07/07 01:58:49;;;;;;;0.40;0.40;;;;;;;17.96;100.00;100766.31;4986325;28;20049;-65
2022/07/07 02:01:14;;;;;;;0.17;0.17;;;;;;;17.95;100.00;100758.56;4987763;28;20037;-65
2022/07/07 02:03:40;;;;;;;0.08;0.08;;;;;;;17.97;100.00;100765.16;4990383;28;20030;-65
2022/07/07 02:06:05;;;;;;;0.45;0.35;;;;;;;17.98;100.00;100755.03;4988355;28;20053;-65
2022/07/07 02:08:31;;;;;;;0.25;0.25;;;;;;;17.78;100.00;100757.53;4989460;28;20871;-65
2022/07/07 02:11:15;;;;;;;0.13;0.10;;;;;;;17.80;100.00;100749.72;4990964;28;20038;-65
2022/07/07 02:13:43;;;;;;;0.22;0.22;;;;;;;17.87;100.00;100752.38;4990173;28;20034;-65
2022/07/07 02:16:10;;;;;;;0.25;0.25;;;;;;;17.86;100.00;100750.06;4986129;28;20027;-65
2022/07/07 02:18:37;;;;;;;0.57;0.20;;;;;;;17.92;100.00;100746.50;4988928;28;20109;-65
2022/07/07 02:21:05;;;;;;;0.70;0.63;;;;;;;17.97;100.00;100759.72;4988426;28;20034;-65
2022/07/07 02:23:31;;;;;;;0.47;0.47;;;;;;;17.99;100.00;100751.13;4987976;28;20033;-65
2022/07/07 02:25:57;;;;;;;0.52;0.20;;;;;;;17.94;100.00;100738.69;4986361;28;20022;-65
2022/07/07 02:28:23;;;;;;;0.20;0.17;;;;;;;17.98;100.00;100736.72;4991728;28;20493;-65
2022/07/07 02:30:53;;;;;;;0.30;0.20;;;;;;;17.97;100.00;100751.53;4992185;28;20027;-65
2022/07/07 02:33:19;;;;;;;0.20;0.20;;;;;;;17.93;100.00;100745.34;4989080;28;20073;-65
2022/07/07 02:35:46;;;;;;;0.50;0.40;;;;;;;17.92;100.00;100749.22;4990173;28;20070;-65
2022/07/07 02:38:11;;;;;;;0.30;0.30;;;;;;;17.95;100.00;100739.47;4985374;28;20230;-65
2022/07/07 02:40:37;;;;;;;0.38;0.20;;;;;;;17.99;100.00;100734.78;4988126;28;20034;-65
2022/07/07 02:43:03;;;;;;;0.40;0.40;;;;;;;17.89;100.00;100735.63;4990492;28;20445;-65
2022/07/07 02:45:28;;;;;;;0.50;0.43;;;;;;;18.01;100.00;100729.69;4988013;28;20039;-65
2022/07/07 02:47:54;;;;;;;0.77;0.40;;;;;;;18.02;100.00;100728.53;4980838;28;20101;-65
2022/07/07 02:50:19;;;;;;;1.60;0.65;;;;;;;17.97;100.00;100724.28;4977364;28;20481;-65
2022/07/07 02:52:45;;;;;;;0.70;0.40;;;;;;;17.98;100.00;100714.16;4975130;28;20119;-65
2022/07/07 02:55:11;;;;;;;0.32;0.32;;;;;;;17.88;100.00;100720.47;4992732;28;20031;-65
2022/07/07 02:57:36;;;;;;;0.40;0.40;;;;;;;17.96;100.00;100708.34;4988701;28;20081;-65
2022/07/07 03:00:07;;;;;;;0.43;0.30;;;;;;;17.92;100.00;100718.50;4992084;28;20088;-65
2022/07/07 03:02:33;;;;;;;0.30;0.28;;;;;;;17.99;100.00;100708.31;4988726;28;20125;-65
2022/07/07 03:04:59;;;;;;;0.50;0.50;;;;;;;18.08;100.00;100710.53;4984757;28;20138;-65
2022/07/07 03:07:24;;;;;;;0.30;0.30;;;;;;;18.09;100.00;100711.31;4990992;28;20029;-66
2022/07/07 03:09:50;;;;;;;0.43;0.40;;;;;;;17.99;100.00;100702.84;5004318;28;20034;-65
2022/07/07 03:12:15;;;;;;;0.52;0.52;;;;;;;18.09;100.00;100706.66;4990427;28;20034;-66
2022/07/07 03:14:41;;;;;;;0.28;0.25;;;;;;;18.09;100.00;100703.94;4986140;28;20034;-65
2022/07/07 03:17:07;;;;;;;0.55;0.55;;;;;;;18.12;100.00;100688.72;4987771;28;20022;-65
2022/07/07 03:19:34;;;;;;;1.05;0.68;;;;;;;18.16;100.00;100697.63;4990590;28;20061;-65
2022/07/07 03:22:01;;;;;;;0.85;0.68;;;;;;;18.12;100.00;100681.28;4989226;28;20072;-65
2022/07/07 03:24:29;;;;;;;0.80;0.73;;;;;;;18.08;100.00;100683.28;4992986;28;20505;-65
2022/07/07 03:26:54;;;;;;;0.82;0.55;;;;;;;18.15;100.00;100685.19;4989253;28;20101;-65
2022/07/07 03:29:20;;;;;;;1.58;0.80;;;;;;;18.19;100.00;100678.50;4989810;28;20145;-65
2022/07/07 03:31:45;;;;;;;0.65;0.52;;;;;;;18.16;100.00;100682.03;4991419;28;20034;-66
2022/07/07 03:34:11;;;;;;;1.08;0.80;;;;;;;18.16;100.00;100686.72;4991129;28;20042;-65
2022/07/07 03:36:36;;;;;;;0.50;0.50;;;;;;;18.18;100.00;100684.34;4985310;28;20034;-65
2022/07/07 03:39:02;;;;;;;0.28;0.28;;;;;;;18.19;100.00;100678.50;4999695;28;20034;-65
2022/07/07 03:41:27;;;;;;;0.70;0.70;;;;;;;18.21;100.00;100678.09;4993956;28;20036;-65
2022/07/07 03:43:53;;;;;;;1.10;1.00;;;;;;;18.25;100.00;100684.28;4989653;28;20053;-65
2022/07/07 03:46:18;;;;;;;2.88;1.15;;;;;;;18.16;100.00;100682.03;5002236;28;20033;-65
2022/07/07 03:48:44;;;;;;;0.55;0.40;;;;;;;18.18;100.00;100676.94;4989755;28;20397;-65
2022/07/07 03:51:10;;;;;;;1.20;1.05;;;;;;;18.21;100.00;100675.38;4984206;28;20481;-65
2022/07/07 03:53:35;;;;;;;0.88;0.75;;;;;;;18.26;100.00;100683.88;5004713;28;20017;-65
2022/07/07 03:56:01;;;;;;;0.60;0.52;;;;;;;18.26;100.00;100683.88;4980735;28;20374;-65
2022/07/07 03:58:26;;;;;;;0.32;0.32;;;;;;;18.24;100.00;100671.81;4990780;28;20109;-65
2022/07/07 04:00:52;;;;;;;0.60;0.50;;;;;;;18.27;100.00;100676.47;5002588;28;20030;-65
2022/07/07 04:03:17;;;;;;;0.82;0.70;;;;;;;18.27;100.00;100679.22;5004749;28;20091;-65
2022/07/07 04:05:43;;;;;;;1.98;0.75;;;;;;;18.27;100.00;100671.03;4992564;28;20034;-65
2022/07/07 04:08:08;;;;;;;0.90;0.80;;;;;;;18.24;100.00;100669.09;4980170;28;20034;-65
2022/07/07 04:10:34;;;;;;;1.10;0.68;;;;;;;18.24;100.00;100667.16;4989613;28;20097;-65
2022/07/07 04:13:00;;;;;;;0.82;0.65;;;;;;;18.29;100.00;100665.94;4991479;28;20028;-65
2022/07/07 04:15:25;;;;;;;0.77;0.63;;;;;;;18.29;100.00;100663.22;4990894;28;20046;-66
2022/07/07 04:17:51;;;;;;;1.23;0.80;;;;;;;18.32;100.00;100665.91;4986072;28;20500;-66
2022/07/07 04:20:16;;;;;;;0.50;0.50;;;;;;;18.32;100.00;100659.66;4987934;28;20022;-65
2022/07/07 04:22:42;;;;;;;0.60;0.50;;;;;;;18.35;100.00;100658.88;4999884;28;20061;-65
2022/07/07 04:25:08;;;;;;;0.90;0.52;;;;;;;18.19;100.00;100662.16;4995441;28;20030;-65
2022/07/07 04:27:34;;;;;;;0.73;0.60;;;;;;;18.26;100.00;100662.06;4984746;28;20048;-65
2022/07/07 04:29:59;;;;;;;0.57;0.40;;;;;;;18.29;100.00;100663.22;4989968;28;20038;-64
2022/07/07 04:32:25;;;;;;;0.77;0.52;;;;;;;18.27;100.00;100657.41;4987007;28;20030;-64
2022/07/07 04:34:50;;;;;;;1.80;0.73;;;;;;;18.30;100.00;100649.19;4997384;28;20043;-64
2022/07/07 04:37:16;;;;;;;0.75;0.60;;;;;;;18.30;100.00;100648.38;4999462;28;20064;-64
2022/07/07 04:39:41;;;;;;;2.35;1.10;;;;;;;18.33;100.00;100644.88;4991464;28;20088;-64
2022/07/07 04:42:07;;;;;;;1.33;1.13;;;;;;;18.30;100.00;100646.44;4998125;28;20049;-65
2022/07/07 04:44:33;;;;;;;0.68;0.50;;;;;;;18.31;100.00;100645.25;4990319;28;20050;-65
2022/07/07 04:46:59;;;;;;;0.60;0.60;;;;;;;18.30;100.00;100637.47;4993974;28;20037;-65
2022/07/07 04:49:25;;;;;;;1.42;0.65;;;;;;;18.33;100.00;100644.88;4995465;28;20074;-65
2022/07/07 04:51:50;;;;;;;0.50;0.50;;;;;;;18.35;100.00;100631.59;4995569;28;20073;-65
2022/07/07 04:54:16;;;;;;;0.50;0.50;;;;;;;18.28;100.00;100637.91;5000813;28;20066;-68
2022/07/07 04:56:42;;;;;;;0.90;0.50;;;;;;;18.30;100.00;100634.75;4977663;28;20030;-64
2022/07/07 04:59:07;;;;;;;0.60;0.40;;;;;;;18.31;100.00;100644.50;4989459;28;20497;-64
2022/07/07 05:01:33;;;;;;;0.63;0.60;;;;;;;18.09;100.00;100635.78;4988594;28;20124;-64
2022/07/07 05:03:58;;;;;;;0.28;0.22;;;;;;;18.14;100.00;100635.31;4998242;28;20473;-65
2022/07/07 05:06:24;;;;;;;0.75;0.60;;;;;;;18.23;100.00;100632.13;5010914;28;20033;-64
2022/07/07 05:08:49;;;;;;;0.95;0.52;;;;;;;18.26;100.00;100640.25;5000367;28;20050;-65
2022/07/07 05:11:15;;;;;;;0.30;0.10;;;;;;;18.28;100.00;100631.66;5007849;28;20022;-64
2022/07/07 05:13:40;;;;;;;0.68;0.68;;;;;;;18.30;100.00;100634.75;5000858;28;20042;-67
2022/07/07 05:16:06;;;;;;;1.10;0.57;;;;;;;18.30;100.00;100640.22;4992401;28;20042;-66
2022/07/07 05:18:32;;;;;;;0.57;0.28;;;;;;;18.17;100.00;100637.25;4996551;28;20026;-64
2022/07/07 05:20:58;;;;;;;0.52;0.40;;;;;;;18.28;100.00;100640.63;4993497;28;20038;-64
2022/07/07 05:23:25;;;;;;;0.40;0.40;;;;;;;18.30;100.00;100629.31;4994140;28;20045;-64
2022/07/07 05:25:51;;;;;;;0.55;0.35;;;;;;;18.33;100.00;100633.97;4990183;28;20105;-65
2022/07/07 05:28:17;;;;;;;0.20;0.20;;;;;;;18.37;100.00;100634.69;4991872;28;20181;-68
2022/07/07 05:30:42;;;;;;;0.60;0.50;;;;;;;18.41;100.00;100640.84;4988304;28;20117;-64
2022/07/07 05:33:08;;;;;;;0.60;0.60;;;;;;;18.40;100.00;100647.50;4985834;28;20030;-65
2022/07/07 05:35:35;;;;;;;1.52;0.43;;;;;;;18.44;100.00;100651.78;4977899;28;20037;-65
2022/07/07 05:38:01;;;;;;;0.80;0.40;;;;;;;18.46;100.00;100657.59;4989039;28;20026;-65
2022/07/07 05:40:27;;;;;;;0.43;0.43;;;;;;;18.45;100.00;100652.53;4992057;28;20104;-65
2022/07/07 05:42:53;;;;;;;0.43;0.43;;;;;;;18.47;100.00;100656.41;4992581;28;20074;-66
2022/07/07 05:45:19;;;;;;;1.02;0.45;;;;;;;18.49;100.00;100659.50;4992176;28;20030;-66
2022/07/07 05:47:44;;;;;;;0.40;0.40;;;;;;;18.53;100.00;100649.31;4988573;28;20035;-66
2022/07/07 05:50:10;;;;;;;0.22;0.22;;;;;;;18.56;100.00;100653.19;4992311;28;20056;-66
2022/07/07 05:52:37;;;;;;;0.10;0.10;;;;;;;18.56;100.00;100648.50;4992516;28;20041;-66
2022/07/07 05:55:03;;;;;;;0.20;0.20;;;;;;;18.58;100.00;100659.00;4991538;28;20138;-66
2022/07/07 05:57:28;;;;;;;0.40;0.30;;;;;;;18.60;100.00;100660.13;4990573;28;20405;-67
2022/07/07 05:59:54;;;;;;;1.17;0.68;;;;;;;18.62;100.00;100654.28;4990239;28;20046;-66
2022/07/07 06:02:19;;;;;;;0.63;0.63;;;;;;;18.65;100.00;100656.97;4992465;28;20039;-66
2022/07/07 06:04:45;;;;;;;0.40;0.40;;;;;;;18.71;100.00;100657.28;4987644;28;20124;-66
2022/07/07 06:07:11;;;;;;;0.57;0.35;;;;;;;18.78;100.00;100660.69;4990953;28;20037;-66
2022/07/07 06:09:36;;;;;;;0.40;0.40;;;;;;;18.80;100.00;100654.81;4995108;28;20041;-65
2022/07/07 06:12:02;;;;;;;0.57;0.57;;;;;;;18.82;100.00;100657.91;4992617;28;20460;-66
2022/07/07 06:14:28;;;;;;;0.57;0.52;;;;;;;18.88;100.00;100659.00;4988935;28;20050;-67
2022/07/07 06:16:54;;;;;;;0.65;0.40;;;;;;;18.92;100.00;100655.03;4990767;28;20031;-67
2022/07/07 06:19:19;;;;;;;0.65;0.30;;;;;;;18.94;100.00;100657.38;4987881;28;20081;-66
2022/07/07 06:21:45;;;;;;;0.88;0.70;;;;;;;19.00;100.00;100663.13;4991123;28;20046;-65
2022/07/07 06:24:11;;;;;;;0.65;0.38;;;;;;;19.00;100.00;100665.84;4992517;28;20125;-65
2022/07/07 06:26:37;;;;;;;0.17;0.17;;;;;;;19.03;100.00;100662.31;4987532;28;20535;-66
2022/07/07 06:29:03;;;;;;;0.60;0.40;;;;;;;19.07;100.00;100658.34;4993158;28;20393;-67
2022/07/07 06:31:29;;;;;;;0.43;0.43;;;;;;;19.15;100.00;100661.75;4991185;28;20038;-66
2022/07/07 06:33:55;;;;;;;0.40;0.28;;;;;;;19.23;100.00;100657.72;4991802;28;20042;-66
2022/07/07 06:36:21;;;;;;;0.35;0.35;;;;;;;19.32;100.00;100664.25;4978197;28;20442;-65
2022/07/07 06:38:46;;;;;;;0.43;0.32;;;;;;;19.43;100.00;100667.59;4990877;28;20038;-66
2022/07/07 06:41:12;;;;;;;0.40;0.30;;;;;;;19.48;100.00;100661.66;4993441;28;20042;-66
2022/07/07 06:43:37;;;;;;;0.63;0.10;;;;;;;19.51;100.00;100666.28;4995104;28;20492;-65
2022/07/07 06:46:03;;;;;;;0.10;0.10;;;;;;;19.53;100.00;100669.38;4989061;28;20026;-66
2022/07/07 06:48:29;;;;;;;0.28;0.28;;;;;;;19.50;100.00;100666.69;4991672;28;20050;-67
2022/07/07 06:50:54;;;;;;;0.60;0.22;;;;;;;19.50;100.00;100672.94;4991317;28;20042;-66
2022/07/07 06:53:20;;;;;;;0.30;0.30;;;;;;;19.50;100.00;100677.63;4989074;28;20119;-65
2022/07/07 06:55:46;;;;;;;0.20;0.20;;;;;;;19.49;100.00;100679.56;4993237;28;20096;-65
2022/07/07 06:58:12;;;;;;;0.63;0.35;;;;;;;19.51;100.00;100674.47;4992752;28;20400;-65
2022/07/07 07:00:38;;;;;;;0.28;0.28;;;;;;;19.49;100.00;100676.09;4991871;28;20117;-66
2022/07/07 07:03:03;;;;;;;0.10;0.10;;;;;;;19.47;100.00;100676.47;4991594;28;20034;-66
2022/07/07 07:05:29;;;;;;;0.80;0.50;;;;;;;19.51;100.00;100677.19;4976539;28;20030;-66
2022/07/07 07:07:54;;;;;;;0.25;0.25;;;;;;;19.57;100.00;100680.22;4984307;28;20071;-66
2022/07/07 07:10:20;;;;;;;0.43;0.30;;;;;;;19.69;100.00;100679.66;4987591;28;20053;-66
2022/07/07 07:12:46;;;;;;;0.30;0.25;;;;;;;19.73;100.00;100678.41;4991411;28;20036;-66
2022/07/07 07:15:11;;;;;;;0.20;0.20;;;;;;;19.98;100.00;100682.66;4982805;28;20093;-66
2022/07/07 07:17:37;;;;;;;0.00;0.00;;;;;;;20.18;100.00;100678.81;4986155;28;20034;-65
2022/07/07 07:20:04;;;;;;;0.10;0.10;;;;;;;20.44;100.00;100675.19;4989259;28;20124;-65
2022/07/07 07:22:37;;;;;;;0.35;0.13;;;;;;;20.64;100.00;100683.38;4988758;28;20038;-64
2022/07/07 07:25:04;;;;;;;0.03;0.03;;;;;;;20.89;100.00;100686.38;4993862;28;20117;-65
2022/07/07 07:27:29;;;;;;;3.75;0.10;;;;;;;21.08;100.00;100680.13;4993203;28;20026;-65
2022/07/07 07:29:55;;;;;;;0.22;0.20;;;;;;;21.23;100.00;100686.06;4989489;28;20035;-66
2022/07/07 07:32:20;;;;;;;0.00;0.00;;;;;;;21.22;100.00;100688.03;4988659;28;20425;-65
2022/07/07 07:34:46;;;;;;;1.52;0.30;;;;;;;21.12;100.00;100685.50;4992412;28;20041;-65
2022/07/07 07:37:11;;;;;;;0.20;0.20;;;;;;;21.01;100.00;100685.00;4988972;28;20045;-65
2022/07/07 07:39:37;;;;;;;1.38;0.20;;;;;;;20.98;100.00;100694.78;4987840;28;20130;-66
2022/07/07 07:42:03;;;;;;;0.80;0.10;;;;;;;20.97;100.00;100690.50;4988701;28;20462;-66
2022/07/07 07:47:12;;;;;;;0.10;0.08;;;;;;;21.37;100.00;100696.69;4989234;28;20040;-65
2022/07/07 07:49:38;;;;;;;0.10;0.10;;;;;;;21.36;100.00;100701.41;4989899;28;20022;-65
2022/07/07 07:52:04;;;;;;;0.30;0.30;;;;;;;21.50;100.00;100694.81;4987643;28;20022;-65
2022/07/07 07:54:29;;;;;;;1.45;1.00;;;;;;;21.62;100.00;100693.38;4990032;28;20042;-65
2022/07/07 07:56:55;;;;;;;0.10;0.10;;;;;;;21.70;100.00;100695.50;4983575;28;20042;-66
2022/07/07 07:59:20;;;;;;;0.35;0.13;;;;;;;21.69;100.00;100695.94;4988439;28;20083;-66
2022/07/07 08:01:46;;;;;;;0.40;0.20;;;;;;;21.83;100.00;100701.09;4990329;28;20038;-66
2022/07/07 08:04:11;;;;;;;0.10;0.10;;;;;;;21.97;100.00;100698.75;4984318;28;20516;-66
2022/07/07 08:06:37;;;;;;;0.52;0.52;;;;;;;22.10;100.00;100707.06;4987980;28;20026;-66
2022/07/07 08:09:03;;;;;;;0.10;0.10;;;;;;;22.08;100.00;100701.25;4989918;28;20168;-66
2022/07/07 08:11:28;;;;;;;0.32;0.25;;;;;;;21.98;98.06;100718.75;4987706;28;20030;-66
2022/07/07 08:13:54;;;;;;;0.10;0.10;;;;;;;21.80;98.75;100716.44;4989261;28;20484;-66
2022/07/07 08:16:19;;;;;;;0.10;0.10;;;;;;;21.66;98.77;100705.78;4990292;28;20046;-66
2022/07/07 08:18:45;;;;;;;0.00;0.00;;;;;;;21.58;99.39;100714.63;4989005;28;20075;-65
2022/07/07 08:21:10;;;;;;;0.00;0.00;;;;;;;21.51;100.00;100718.28;4989528;28;20396;-66
2022/07/07 08:23:36;;;;;;;0.70;0.10;;;;;;;21.52;100.00;100722.59;4997047;28;20408;-66
2022/07/07 08:26:01;;;;;;;0.10;0.10;;;;;;;21.46;100.00;100732.50;4990894;28;20030;-65
2022/07/07 08:28:27;;;;;;;0.05;0.05;;;;;;;21.38;100.00;100740.13;4998159;28;20037;-65
2022/07/07 08:30:53;;;;;;;0.00;0.00;;;;;;;21.14;100.00;100744.16;4996722;28;20409;-64
2022/07/07 08:33:18;;;;;;;0.05;0.00;;;;;;;20.92;100.00;100756.75;5001762;28;20114;-65
2022/07/07 08:35:44;;;;;;;0.10;0.00;;;;;;;20.74;100.00;100747.34;4998968;28;20386;-64
2022/07/07 08:38:09;;;;;;;0.20;0.20;;;;;;;20.63;100.00;100747.56;4997429;28;20029;-64
2022/07/07 08:40:36;;;;;;;0.00;0.00;;;;;;;20.57;100.00;100750.00;4995704;28;20030;-64
2022/07/07 08:43:01;;;;;;;0.10;0.10;;;;;;;20.51;100.00;100754.44;4991384;28;20171;-64
2022/07/07 08:45:27;;;;;;;0.05;0.05;;;;;;;20.57;100.00;100762.91;4993114;28;20072;-65
2022/07/07 08:47:54;;;;;;;0.00;0.00;;;;;;;20.66;100.00;100774.06;4996823;28;20034;-65
2022/07/07 08:50:20;;;;;;;0.55;0.30;;;;;;;20.78;100.00;100765.25;4996631;28;20453;-65
2022/07/07 08:52:47;;;;;;;0.20;0.20;;;;;;;20.94;100.00;100773.53;4987578;28;20038;-65
2022/07/07 08:55:15;;;;;;;0.20;0.10;;;;;;;21.09;100.00;100771.28;4989011;28;20125;-65
2022/07/07 08:57:42;;;;;;;0.00;0.00;;;;;;;21.26;100.00;100772.88;4994396;28;20454;-65
2022/07/07 09:00:08;;;;;;;0.00;0.00;;;;;;;21.40;100.00;100778.84;4997524;28;20066;-65
2022/07/07 09:02:34;;;;;;;0.00;0.00;;;;;;;21.66;100.00;100779.81;4990265;28;20496;-65
2022/07/07 09:04:59;;;;;;;0.00;0.00;;;;;;;21.78;100.00;100781.88;4993282;28;20046;-65
2022/07/07 09:07:44;;;;;;;0.45;0.20;;;;;;;22.00;100.00;100777.47;4998076;28;20039;-65
2022/07/07 09:10:09;;;;;;;0.03;0.00;;;;;;;22.31;100.00;100786.09;4998635;28;20030;-65
2022/07/07 09:12:35;;;;;;;0.00;0.00;;;;;;;22.49;100.00;100789.16;4994170;28;20034;-66
2022/07/07 09:15:04;;;;;;;0.00;0.00;;;;;;;22.59;100.00;100796.34;4994990;28;20125;-66
2022/07/07 09:17:33;;;;;;;0.20;0.10;;;;;;;22.66;100.00;100793.44;4992481;28;20126;-65
2022/07/07 09:20:13;;;;;;;0.03;0.03;;;;;;;22.72;100.00;100796.41;4994790;28;20030;-66
2022/07/07 09:22:49;;;;;;;0.30;0.17;;;;;;;22.90;100.00;100797.47;4991374;28;20038;-66
2022/07/07 09:25:17;;;;;;;0.10;0.10;;;;;;;23.04;98.91;100799.03;4991066;28;20419;-66
2022/07/07 09:28:03;;;;;;;0.10;0.10;;;;;;;23.02;97.14;100801.44;4992344;28;20040;-66
2022/07/07 09:30:40;;;;;;;0.22;0.20;;;;;;;23.06;96.66;100800.16;4987693;28;20031;-66
2022/07/07 09:33:19;;;;;;;0.00;0.00;;;;;;;23.14;95.95;100804.25;4983417;28;20089;-66
2022/07/07 09:38:31;;;;;;;0.10;0.00;;;;;;;23.25;95.53;100810.19;4979522;28;20023;-66
2022/07/07 09:41:10;;;;;;;0.00;0.00;;;;;;;23.15;94.15;100816.75;4983876;28;20119;-66
2022/07/07 09:43:46;;;;;;;0.10;0.10;;;;;;;23.07;94.12;100826.41;4976987;28;20096;-65
2022/07/07 09:46:20;;;;;;;0.00;0.00;;;;;;;23.03;95.15;100825.00;4976699;28;20034;-65
2022/07/07 09:48:48;;;;;;;0.00;0.00;;;;;;;22.92;94.38;100835.50;4985126;28;20041;-65
2022/07/07 09:51:23;;;;;;;0.95;0.10;;;;;;;22.78;94.34;100842.16;4988631;28;20470;-65
2022/07/07 09:54:01;;;;;;;0.00;0.00;;;;;;;22.54;93.61;100843.53;4987683;28;20425;-65
2022/07/07 09:56:30;;;;;;;0.00;0.00;;;;;;;22.43;93.16;100845.78;4967800;28;20042;-65
2022/07/07 09:58:57;;;;;;;0.00;0.00;;;;;;;22.35;93.44;100847.16;4993373;28;20123;-66
2022/07/07 10:01:33;;;;;;;0.08;0.08;;;;;;;22.28;94.51;100852.81;4982318;28;20030;-66
2022/07/07 10:04:02;;;;;;;0.20;0.20;;;;;;;22.30;95.29;100856.69;4976763;28;20146;-65
2022/07/07 10:06:29;;;;;;;0.00;0.00;;;;;;;22.41;94.40;100857.19;4979434;28;20432;-66
2022/07/07 10:09:03;;;;;;;0.25;0.25;;;;;;;22.58;94.71;100860.72;4982597;28;20507;-65
2022/07/07 10:11:33;;;;;;;0.30;0.30;;;;;;;22.97;94.54;100873.44;4984962;28;20030;-67
2022/07/07 10:14:08;;;;;;;0.03;0.00;;;;;;;23.22;92.58;100870.78;4979187;28;20035;-66
2022/07/07 10:16:34;;;;;;;0.08;0.00;;;;;;;23.36;88.51;100878.66;5001150;28;20031;-66
2022/07/07 10:19:00;;;;;;;0.10;0.10;;;;;;;23.46;88.78;100882.31;4981946;28;20296;-66
2022/07/07 10:21:26;;;;;;;0.32;0.32;;;;;;;23.59;88.15;100883.09;4986304;28;20391;-66
2022/07/07 10:23:51;;;;;;;0.00;0.00;;;;;;;23.69;86.59;100888.28;4985326;28;20041;-66
2022/07/07 10:26:33;;;;;;;1.77;0.80;;;;;;;23.55;85.97;100896.19;4980776;28;20031;-66
2022/07/07 10:28:59;;;;;;;0.20;0.10;;;;;;;23.34;84.26;100894.03;4971492;28;20489;-67
2022/07/07 10:31:26;;;;;;;0.10;0.00;;;;;;;23.27;83.94;100904.00;4973509;28;20049;-67
2022/07/07 10:34:02;;;;;;;0.00;0.00;;;;;;;23.02;82.86;100909.41;4971810;28;20118;-66
2022/07/07 10:37:08;;;;;;;0.05;0.05;;;;;;;22.95;83.45;100901.34;4971958;28;20417;-66
2022/07/07 10:39:43;;;;;;;0.00;0.00;;;;;;;22.90;83.60;100914.84;4934138;29;20693;-65
2022/07/07 10:42:37;;;;;;;0.00;0.00;;;;;;;22.79;84.42;100919.84;4973382;28;20252;-65
2022/07/07 10:45:04;;;;;;;0.20;0.10;;;;;;;22.72;83.69;100912.56;4965116;28;20042;-65
2022/07/07 10:47:32;;;;;;;0.03;0.03;;;;;;;22.71;82.63;100927.47;4975593;28;20034;-66
2022/07/07 10:49:59;;;;;;;0.15;0.03;;;;;;;22.70;82.71;100920.47;4977238;28;20109;-66
2022/07/07 10:52:26;;;;;;;0.13;0.10;;;;;;;22.79;83.35;100920.59;4977409;28;20038;-65
2022/07/07 10:54:54;;;;;;;0.47;0.32;;;;;;;23.00;82.01;100920.06;4997309;23;20696;-57
2022/07/07 10:57:22;;;;;;;0.22;0.22;;;;;;;23.23;80.09;100917.06;4980234;28;20385;-58
2022/07/07 10:59:58;;;;;;;0.73;0.30;;;;;;;23.47;79.34;100922.34;4979057;28;20047;-56
2022/07/07 11:02:37;;;;;;;0.10;0.10;;;;;;;23.67;79.25;100906.44;4981900;28;20488;-57
2022/07/07 11:05:15;;;;;;;0.10;0.10;;;;;;;24.13;78.54;100922.38;4973413;28;20039;-59
2022/07/07 11:08:06;;;;;;;0.08;0.08;;;;;;;24.50;75.45;100918.03;4982544;28;20366;-60
2022/07/07 11:10:53;;;;;;;0.10;0.10;;;;;;;24.58;74.75;100922.09;4971498;28;20046;-58
2022/07/07 11:13:21;;;;;;;0.17;0.05;;;;;;;24.47;72.85;100930.69;4986888;28;20030;-57
2022/07/07 11:16:08;;;;;;;0.00;0.00;;;;;;;24.33;73.12;100931.16;4982788;28;20066;-58
2022/07/07 11:18:35;;;;;;;0.30;0.10;;;;;;;23.93;75.32;100935.53;4986461;28;20546;-60
2022/07/07 11:21:03;;;;;;;0.00;0.00;;;;;;;23.78;75.57;100940.69;4988394;28;20041;-55
2022/07/07 11:23:57;;;;;;;0.08;0.00;;;;;;;23.62;73.24;100942.72;4986114;28;20034;-57
2022/07/07 11:26:25;;;;;;;0.10;0.03;;;;;;;23.38;75.58;100945.00;4986085;28;20453;-60